Time;durP1;ratioP1;P1;durP2;ratioP2;P2;SDS_P1;SDS_P2;PMS_P1;PMS_P2;Temp;Humidity;BMP_temperature;BMP_pressure;BME280_temperature;BME280_humidity;BME280_pressure;Samples;Min_cycle;Max_cycle;Signal;HPM_P1;HPM_P2
2021/06/09 00:01:06;;;;;;;15.63;14.02;;;15.00;99.90;;;;;;6291447;28;20028;-88
2021/06/09 00:04:07;;;;;;;16.15;14.65;;;;;;;;;;6270986;28;20032;-87
2021/06/09 00:07:08;;;;;;;15.80;14.20;;;;;;;;;;6293156;28;20549;-92
2021/06/09 00:10:10;;;;;;;14.52;13.13;;;14.80;99.90;;;;;;6304533;28;20028;-87
2021/06/09 00:13:10;;;;;;;14.15;12.75;;;14.50;99.90;;;;;;6287593;28;20031;-87
2021/06/09 00:16:13;;;;;;;17.85;14.40;;;14.30;99.90;;;;;;6270687;28;20032;-87
2021/06/09 00:19:16;;;;;;;15.48;13.90;;;14.70;99.90;;;;;;6287405;28;20551;-86
2021/06/09 00:22:16;;;;;;;14.80;13.38;;;14.40;99.90;;;;;;6287932;28;20028;-87
2021/06/09 00:25:18;;;;;;;16.90;14.50;;;14.30;99.90;;;;;;6287495;28;20039;-88
2021/06/09 00:28:19;;;;;;;15.23;13.83;;;;;;;;;;6304365;28;20027;-87
2021/06/09 00:31:20;;;;;;;16.98;15.27;;;14.30;99.90;;;;;;6287350;28;20111;-89
2021/06/09 00:34:21;;;;;;;15.95;14.07;;;;;;;;;;6270919;28;20079;-90
2021/06/09 00:37:22;;;;;;;14.93;13.52;;;;;;;;;;6293025;28;20040;-89
2021/06/09 00:40:23;;;;;;;14.55;13.15;;;;;;;;;;6287455;28;20509;-88
2021/06/09 00:43:27;;;;;;;14.95;13.48;;;14.10;99.90;;;;;;6287871;28;20020;-89
2021/06/09 00:46:35;;;;;;;15.90;13.77;;;14.20;99.90;;;;;;6286692;28;20056;-90
2021/06/09 00:49:35;;;;;;;15.05;13.35;;;13.90;99.90;;;;;;6287708;28;20067;-89
2021/06/09 00:52:36;;;;;;;18.58;14.00;;;;;;;;;;6287301;28;20380;-91
2021/06/09 00:55:37;;;;;;;15.88;13.80;;;14.30;99.90;;;;;;6286964;28;20048;-89
2021/06/09 00:58:38;;;;;;;16.25;13.63;;;;;;;;;;6286988;28;20182;-88
2021/06/09 01:01:39;;;;;;;15.07;13.57;;;14.10;99.90;;;;;;6286797;28;20024;-87
2021/06/09 01:04:40;;;;;;;15.40;13.90;;;;;;;;;;6270417;28;20032;-90
2021/06/09 01:07:40;;;;;;;16.38;13.75;;;14.10;99.90;;;;;;6287050;28;20028;-89
2021/06/09 01:10:41;;;;;;;14.32;13.00;;;14.10;99.90;;;;;;6270276;28;20036;-88
2021/06/09 01:13:42;;;;;;;21.63;14.45;;;;;;;;;;6270016;28;20101;-89
2021/06/09 01:16:43;;;;;;;14.85;13.45;;;14.00;99.90;;;;;;6286756;28;20028;-90
2021/06/09 01:19:43;;;;;;;16.35;14.57;;;;;;;;;;6269749;28;20687;-88
2021/06/09 01:22:44;;;;;;;16.75;13.95;;;;;;;;;;6286664;28;20081;-89
2021/06/09 01:25:46;;;;;;;16.00;14.30;;;;;;;;;;6286343;28;20027;-88
2021/06/09 01:28:46;;;;;;;15.73;14.23;;;14.00;99.90;;;;;;6286251;28;20024;-90
2021/06/09 01:31:47;;;;;;;16.08;14.50;;;14.00;99.90;;;;;;6270033;28;20025;-90
2021/06/09 01:34:48;;;;;;;15.27;13.55;;;;;;;;;;6269423;28;20063;-91
2021/06/09 01:37:49;;;;;;;16.13;14.43;;;14.20;99.90;;;;;;6286005;28;20024;-90
2021/06/09 01:40:50;;;;;;;15.02;13.63;;;13.90;99.90;;;;;;6285997;28;20063;-89
2021/06/09 01:43:53;;;;;;;15.20;13.73;;;13.80;99.90;;;;;;6285817;28;20121;-89
2021/06/09 01:46:54;;;;;;;15.07;13.50;;;13.80;99.90;;;;;;6285556;28;20036;-89
2021/06/09 01:49:55;;;;;;;15.80;14.07;;;;;;;;;;6286019;28;20027;-89
2021/06/09 01:52:56;;;;;;;16.20;14.48;;;;;;;;;;6293025;28;20020;-87
2021/06/09 01:55:58;;;;;;;16.00;14.40;;;13.90;99.90;;;;;;6276769;28;20115;-88
2021/06/09 01:58:59;;;;;;;20.85;14.80;;;;;;;;;;6276978;28;20052;-88
2021/06/09 02:02:00;;;;;;;18.38;12.95;;;13.80;99.90;;;;;;6277267;28;20111;-88
2021/06/09 02:05:00;;;;;;;15.82;13.60;;;13.70;99.90;;;;;;6260920;28;20092;-88
2021/06/09 02:08:07;;;;;;;14.93;13.52;;;13.80;99.90;;;;;;6276954;28;20021;-89
2021/06/09 02:11:07;;;;;;;14.82;13.48;;;13.70;99.90;;;;;;6277389;28;20089;-88
2021/06/09 02:14:08;;;;;;;14.82;13.27;;;;;;;;;;6277254;28;20063;-89
2021/06/09 02:17:10;;;;;;;15.43;14.00;;;13.90;99.90;;;;;;6277224;28;20040;-88
2021/06/09 02:20:12;;;;;;;15.30;13.90;;;13.90;99.90;;;;;;6276742;28;20032;-90
2021/06/09 02:23:17;;;;;;;15.43;13.18;;;13.80;99.90;;;;;;6260640;28;20680;-87
2021/06/09 02:26:17;;;;;;;15.02;13.63;;;13.90;99.90;;;;;;6276761;28;20127;-87
2021/06/09 02:29:19;;;;;;;15.15;13.60;;;;;;;;;;6276689;28;20041;-88
2021/06/09 02:32:20;;;;;;;14.32;12.95;;;;;;;;;;6277158;28;20032;-87
2021/06/09 02:35:20;;;;;;;15.95;13.63;;;13.70;99.90;;;;;;6282896;28;20025;-88
2021/06/09 02:38:21;;;;;;;17.95;13.77;;;;;;;;;;6276334;28;20131;-89
2021/06/09 02:41:22;;;;;;;15.70;14.10;;;13.80;99.90;;;;;;6276717;28;20443;-90
2021/06/09 02:44:23;;;;;;;15.00;13.45;;;;;;;;;;6260741;28;20155;-89
2021/06/09 02:47:24;;;;;;;15.80;14.30;;;13.80;99.90;;;;;;6276470;28;20039;-88
2021/06/09 02:50:24;;;;;;;15.48;14.07;;;14.00;99.90;;;;;;6260291;28;20041;-92
2021/06/09 02:53:29;;;;;;;16.20;14.48;;;13.90;99.90;;;;;;6276128;28;20021;-89
2021/06/09 02:57:04;;;;;;;15.40;14.00;;;13.90;99.90;;;;;;6275587;28;20375;-87
2021/06/09 03:00:09;;;;;;;16.98;15.27;;;13.80;99.90;;;;;;6283840;28;20036;-88
2021/06/09 03:03:12;;;;;;;16.85;14.48;;;14.10;99.90;;;;;;6276474;28;20131;-88
2021/06/09 03:06:33;;;;;;;16.77;15.05;;;16.00;99.90;;;;;;6292683;28;20039;-90
2021/06/09 03:09:50;;;;;;;15.02;13.48;;;14.00;99.90;;;;;;6291924;28;20238;-88
2021/06/09 03:13:01;;;;;;;14.13;12.63;;;13.90;99.90;;;;;;6292537;28;20052;-88
2021/06/09 03:16:07;;;;;;;14.32;12.93;;;14.50;99.90;;;;;;6276696;28;20145;-88
2021/06/09 03:19:13;;;;;;;14.05;12.65;;;13.60;99.90;;;;;;6275556;28;20024;-87
2021/06/09 03:22:38;;;;;;;14.30;12.95;;;13.80;99.90;;;;;;6268206;28;20073;-89
2021/06/09 03:25:58;;;;;;;14.38;12.98;;;13.60;99.90;;;;;;6262284;28;20031;-89
2021/06/09 03:29:13;;;;;;;14.82;13.32;;;13.60;99.90;;;;;;6276353;28;20036;-89
2021/06/09 03:32:35;;;;;;;16.52;14.93;;;13.60;99.90;;;;;;6277118;28;20020;-89
2021/06/09 03:35:55;;;;;;;15.65;13.18;;;13.60;99.90;;;;;;6275520;28;20488;-89
2021/06/09 03:39:04;;;;;;;15.35;13.80;;;13.50;99.90;;;;;;6297834;28;20063;-88
2021/06/09 03:42:07;;;;;;;13.80;12.50;;;13.50;99.90;;;;;;6274606;28;20055;-89
2021/06/09 03:45:08;;;;;;;14.25;12.85;;;13.40;99.90;;;;;;6259441;28;20036;-91
2021/06/09 03:48:09;;;;;;;16.40;13.63;;;;;;;;;;6276015;28;20052;-90
2021/06/09 03:51:10;;;;;;;17.40;14.10;;;;;;;;;;6276319;28;20028;-90
2021/06/09 03:54:11;;;;;;;16.20;14.60;;;13.60;99.90;;;;;;6276176;28;20105;-90
2021/06/09 03:57:12;;;;;;;15.02;13.63;;;;;;;;;;6275064;28;20052;-90
2021/06/09 04:00:13;;;;;;;15.85;14.35;;;13.70;99.90;;;;;;6276098;28;20564;-89
2021/06/09 04:03:14;;;;;;;16.15;14.63;;;;;;;;;;6259184;28;20028;-89
2021/06/09 04:06:16;;;;;;;15.02;13.57;;;13.80;99.90;;;;;;6276054;28;20032;-90
2021/06/09 04:09:19;;;;;;;14.50;13.10;;;14.00;99.90;;;;;;6259139;28;20032;-89
2021/06/09 04:12:20;;;;;;;14.50;13.10;;;14.20;99.90;;;;;;6275412;28;20035;-87
2021/06/09 04:15:21;;;;;;;13.73;12.40;;;;;;;;;;6275502;28;20429;-89
2021/06/09 04:18:22;;;;;;;14.25;12.80;;;;;;;;;;6287662;28;20302;-88
2021/06/09 04:21:26;;;;;;;14.40;12.90;;;14.70;99.90;;;;;;6295000;28;20020;-88
2021/06/09 04:24:27;;;;;;;14.57;13.18;;;14.70;99.90;;;;;;6279949;28;20029;-89
2021/06/09 04:27:29;;;;;;;15.02;13.52;;;14.70;99.90;;;;;;6279853;28;20066;-90
2021/06/09 04:30:30;;;;;;;14.32;12.93;;;;;;;;;;6279273;28;20028;-88
2021/06/09 04:33:34;;;;;;;14.35;13.05;;;;;;;;;;6279872;28;20474;-90
2021/06/09 04:36:34;;;;;;;14.90;13.38;;;14.70;99.90;;;;;;6279702;28;20495;-88
2021/06/09 04:39:38;;;;;;;15.73;13.60;;;14.70;99.90;;;;;;6279350;28;20033;-87
2021/06/09 04:42:39;;;;;;;14.55;13.23;;;14.90;99.90;;;;;;6262105;28;20059;-87
2021/06/09 04:45:39;;;;;;;15.07;13.68;;;14.80;99.90;;;;;;6277746;28;20038;-83
2021/06/09 04:48:40;;;;;;;16.25;14.27;;;;;;;;;;6260871;28;20067;-83
2021/06/09 04:51:41;;;;;;;19.83;13.55;;;14.90;99.90;;;;;;6296203;28;20025;-83
2021/06/09 04:54:42;;;;;;;15.27;13.63;;;15.30;99.90;;;;;;6294440;28;20436;-85
2021/06/09 04:57:42;;;;;;;15.40;13.90;;;15.50;99.90;;;;;;6260954;28;20075;-85
2021/06/09 05:00:44;;;;;;;14.63;13.15;;;16.30;99.90;;;;;;6261114;28;20028;-85
2021/06/09 05:03:44;;;;;;;14.85;13.32;;;16.40;99.90;;;;;;6260841;28;20025;-80
2021/06/09 05:06:45;;;;;;;15.27;13.77;;;16.50;99.90;;;;;;6293809;28;20485;-80
2021/06/09 05:09:45;;;;;;;15.68;13.80;;;16.90;99.90;;;;;;6294391;28;20020;-82
2021/06/09 05:13:08;;;;;;;16.23;13.07;;;17.00;99.90;;;;;;6277336;28;20067;-81
2021/06/09 05:16:12;;;;;;;14.45;13.02;;;17.30;99.90;;;;;;6294241;28;20387;-80
2021/06/09 05:19:13;;;;;;;15.48;13.82;;;17.40;99.90;;;;;;6260588;28;20025;-81
2021/06/09 05:22:23;;;;;;;15.10;13.70;;;17.50;99.90;;;;;;6293615;28;20044;-79
2021/06/09 05:25:23;;;;;;;15.75;14.13;;;17.70;99.90;;;;;;6278134;28;20446;-76
2021/06/09 05:28:25;;;;;;;14.23;12.95;;;17.90;99.90;;;;;;6277189;28;20034;-79
2021/06/09 05:31:26;;;;;;;13.52;12.23;;;18.20;99.90;;;;;;6276476;28;20461;-79
2021/06/09 05:34:27;;;;;;;14.35;12.88;;;18.30;99.90;;;;;;6292463;28;20035;-79
2021/06/09 05:37:27;;;;;;;13.10;11.80;;;18.60;99.90;;;;;;6293199;28;20036;-78
2021/06/09 05:40:28;;;;;;;16.48;12.00;;;18.40;99.90;;;;;;6292876;28;20402;-81
2021/06/09 05:43:29;;;;;;;13.00;11.90;;;18.80;99.90;;;;;;6274705;28;20074;-79
2021/06/09 05:46:30;;;;;;;14.40;13.00;;;18.90;99.90;;;;;;6292393;28;20088;-81
2021/06/09 05:49:31;;;;;;;12.02;11.00;;;19.20;99.90;;;;;;6275425;28;20032;-80
2021/06/09 05:52:31;;;;;;;13.68;12.32;;;19.80;99.90;;;;;;6276035;28;20453;-79
2021/06/09 05:55:32;;;;;;;13.13;11.93;;;19.70;99.90;;;;;;6280786;28;20075;-78
2021/06/09 05:58:33;;;;;;;14.27;12.87;;;20.10;99.90;;;;;;6300840;28;20169;-80
2021/06/09 06:01:34;;;;;;;13.00;11.80;;;20.40;99.90;;;;;;6300780;28;20028;-79
2021/06/09 06:04:34;;;;;;;12.63;11.32;;;20.70;99.90;;;;;;6300727;28;20099;-79
2021/06/09 06:07:35;;;;;;;11.85;10.75;;;21.20;99.60;;;;;;6300166;28;20024;-79
2021/06/09 06:10:36;;;;;;;12.43;11.00;;;22.00;99.90;;;;;;6318723;28;20032;-81
2021/06/09 06:13:37;;;;;;;12.23;11.02;;;21.90;97.80;;;;;;6300426;28;20111;-79
2021/06/09 06:16:38;;;;;;;13.18;11.85;;;22.30;97.10;;;;;;6283587;28;20130;-81
2021/06/09 06:19:39;;;;;;;12.82;11.52;;;22.40;96.80;;;;;;6300439;28;20028;-79
2021/06/09 06:22:40;;;;;;;13.25;12.02;;;22.60;97.30;;;;;;6300378;28;20095;-82
2021/06/09 06:25:40;;;;;;;12.95;11.75;;;22.80;96.60;;;;;;6283798;28;20021;-81
2021/06/09 06:28:41;;;;;;;12.30;11.20;;;23.10;95.40;;;;;;6283973;28;20093;-79
2021/06/09 06:31:42;;;;;;;13.48;12.15;;;23.30;94.10;;;;;;6300133;28;20480;-81
2021/06/09 06:34:47;;;;;;;12.38;11.05;;;23.50;93.80;;;;;;6300278;28;20123;-79
2021/06/09 06:37:48;;;;;;;12.65;11.45;;;23.70;94.30;;;;;;6267213;28;20366;-80
2021/06/09 06:40:49;;;;;;;12.77;11.57;;;24.20;92.20;;;;;;6283377;28;20492;-79
2021/06/09 06:43:50;;;;;;;12.30;10.95;;;24.30;92.20;;;;;;6282885;28;20040;-79
2021/06/09 06:46:50;;;;;;;12.00;10.80;;;24.40;91.60;;;;;;6299655;28;20389;-81
2021/06/09 06:49:51;;;;;;;12.00;10.95;;;24.00;91.60;;;;;;6266692;28;20114;-82
2021/06/09 06:52:52;;;;;;;13.57;12.37;;;25.00;91.30;;;;;;6283341;28;20036;-79
2021/06/09 06:55:52;;;;;;;12.55;11.27;;;25.20;90.70;;;;;;6299335;28;20052;-79
2021/06/09 06:58:53;;;;;;;11.38;10.38;;;25.60;90.60;;;;;;6299358;28;20656;-79
2021/06/09 07:01:54;;;;;;;12.80;11.30;;;25.80;90.50;;;;;;6299253;28;20028;-80
2021/06/09 07:04:55;;;;;;;13.93;10.93;;;26.20;89.50;;;;;;6282891;28;20105;-82
2021/06/09 07:07:56;;;;;;;12.00;11.00;;;26.40;87.80;;;;;;6299614;28;20392;-81
2021/06/09 07:10:57;;;;;;;26.80;12.65;;;26.70;86.00;;;;;;6282864;28;20113;-81
2021/06/09 07:13:57;;;;;;;11.70;10.50;;;26.80;87.50;;;;;;6299486;28;20478;-81
2021/06/09 07:16:58;;;;;;;11.97;10.57;;;26.70;84.20;;;;;;6283357;28;20044;-82
2021/06/09 07:19:59;;;;;;;12.33;11.23;;;26.90;85.10;;;;;;6266302;28;20066;-81
2021/06/09 07:22:59;;;;;;;12.10;10.93;;;27.00;84.00;;;;;;6282801;28;20153;-82
2021/06/09 07:26:00;;;;;;;11.93;10.83;;;27.20;81.30;;;;;;6282826;28;20115;-82
2021/06/09 07:29:01;;;;;;;13.03;11.83;;;27.30;82.60;;;;;;6265603;28;20032;-81
2021/06/09 07:32:02;;;;;;;13.00;11.90;;;27.40;82.40;;;;;;6299233;28;20455;-81
2021/06/09 07:35:04;;;;;;;12.27;11.07;;;27.60;84.20;;;;;;6299140;28;20032;-82
2021/06/09 07:38:10;;;;;;;12.13;11.02;;;27.70;83.40;;;;;;6265904;28;20047;-82
2021/06/09 07:41:10;;;;;;;13.20;11.90;;;27.80;83.50;;;;;;6266535;28;20031;-81
2021/06/09 07:44:11;;;;;;;12.97;11.80;;;27.90;84.60;;;;;;6282765;28;20458;-82
2021/06/09 07:47:12;;;;;;;15.17;13.77;;;27.90;84.60;;;;;;6282418;28;20371;-82
2021/06/09 07:50:13;;;;;;;14.52;13.20;;;28.00;84.70;;;;;;6281836;28;20047;-81
2021/06/09 07:53:14;;;;;;;14.55;13.25;;;27.90;85.70;;;;;;6298898;28;20500;-81
2021/06/09 07:56:16;;;;;;;14.40;12.93;;;27.90;85.20;;;;;;6284542;28;20052;-82
2021/06/09 07:59:19;;;;;;;14.52;13.13;;;27.90;86.00;;;;;;6287220;28;20119;-82
2021/06/09 08:02:20;;;;;;;15.88;12.85;;;28.00;86.10;;;;;;6303262;28;20447;-82
2021/06/09 08:05:20;;;;;;;15.50;13.82;;;28.20;85.50;;;;;;6303749;28;20035;-82
2021/06/09 08:08:21;;;;;;;15.53;14.23;;;28.20;85.20;;;;;;6302926;28;20025;-82
2021/06/09 08:11:21;;;;;;;14.30;12.80;;;28.30;84.90;;;;;;6301816;28;20032;-83
2021/06/09 08:14:22;;;;;;;15.97;14.40;;;28.20;84.90;;;;;;6267942;28;20032;-83
2021/06/09 08:17:23;;;;;;;15.63;14.10;;;28.10;85.40;;;;;;6267016;28;20035;-83
2021/06/09 08:20:23;;;;;;;15.97;14.10;;;28.30;85.50;;;;;;6286291;28;20028;-83
2021/06/09 08:23:24;;;;;;;16.10;14.60;;;27.90;85.10;;;;;;6286535;28;20116;-83
2021/06/09 08:26:26;;;;;;;15.87;14.47;;;28.10;87.20;;;;;;6286049;28;20381;-82
2021/06/09 08:29:26;;;;;;;15.88;14.40;;;27.80;86.40;;;;;;6269679;28;20035;-83
2021/06/09 08:32:27;;;;;;;16.20;14.60;;;29.00;86.70;;;;;;6303155;28;20436;-83
2021/06/09 08:35:28;;;;;;;15.50;13.97;;;28.10;86.80;;;;;;6302579;28;20039;-82
2021/06/09 08:38:29;;;;;;;15.73;14.15;;;28.10;86.70;;;;;;6286298;28;20382;-83
2021/06/09 08:41:35;;;;;;;16.80;15.20;;;28.30;84.40;;;;;;6303088;28;20062;-82
2021/06/09 08:44:39;;;;;;;16.58;15.02;;;28.40;84.50;;;;;;6302478;28;20023;-83
2021/06/09 08:47:40;;;;;;;16.00;14.55;;;28.40;84.80;;;;;;6286136;28;20389;-82
2021/06/09 08:50:42;;;;;;;16.10;14.40;;;28.70;84.90;;;;;;6302505;28;20576;-82
2021/06/09 08:53:43;;;;;;;;;;;28.40;83.20;;;;;;6285979;28;20020;-82
2021/06/09 08:56:46;;;;;;;14.57;13.18;;;28.10;83.40;;;;;;6285094;28;19924;-82
2021/06/09 08:59:46;;;;;;;15.75;14.15;;;28.20;84.20;;;;;;6285620;28;20440;-82
2021/06/09 09:02:47;;;;;;;16.23;14.63;;;28.70;85.50;;;;;;6302171;28;20028;-82
2021/06/09 09:05:48;;;;;;;15.93;14.20;;;28.80;83.00;;;;;;6285192;28;20024;-83
2021/06/09 09:08:48;;;;;;;15.90;14.30;;;29.10;82.40;;;;;;6302216;28;20032;-82
2021/06/09 09:11:49;;;;;;;14.83;13.53;;;29.00;82.40;;;;;;6285452;28;20039;-83
2021/06/09 09:14:50;;;;;;;15.33;13.83;;;29.10;80.60;;;;;;6285489;28;20038;-82
2021/06/09 09:17:51;;;;;;;17.40;15.73;;;29.00;80.50;;;;;;6268164;28;20070;-82
2021/06/09 09:20:52;;;;;;;16.75;15.15;;;28.80;79.70;;;;;;6301657;28;20035;-82
2021/06/09 09:23:53;;;;;;;15.90;14.40;;;28.70;81.30;;;;;;6284689;28;20051;-82
2021/06/09 09:26:54;;;;;;;14.70;13.20;;;28.70;80.70;;;;;;6285168;28;20740;-82
2021/06/09 09:30:18;;;;;;;16.40;14.70;;;29.00;81.60;;;;;;6301523;28;20032;-82
2021/06/09 09:33:21;;;;;;;15.55;13.90;;;29.30;80.60;;;;;;6269460;28;20031;-83
2021/06/09 09:36:28;;;;;;;14.27;12.80;;;29.40;78.20;;;;;;6284297;28;20031;-82
2021/06/09 09:39:30;;;;;;;14.55;13.20;;;29.60;78.70;;;;;;6268460;28;20032;-83
2021/06/09 09:42:33;;;;;;;12.75;11.60;;;29.80;77.40;;;;;;6284300;28;20024;-83
2021/06/09 09:45:35;;;;;;;13.27;12.07;;;30.30;75.10;;;;;;6301707;28;20020;-82
2021/06/09 09:48:38;;;;;;;14.05;12.85;;;30.50;76.70;;;;;;6284027;28;20139;-83
2021/06/09 09:51:45;;;;;;;13.40;12.20;;;30.70;76.90;;;;;;6301297;28;20055;-83
2021/06/09 09:54:47;;;;;;;14.30;12.88;;;30.70;72.60;;;;;;6319328;28;20032;-83
2021/06/09 09:57:47;;;;;;;13.43;12.25;;;30.90;74.10;;;;;;6266777;28;20094;-83
2021/06/09 10:00:48;;;;;;;13.30;12.20;;;31.10;72.40;;;;;;6264576;28;20023;-84
2021/06/09 10:03:55;;;;;;;13.97;12.47;;;31.20;72.30;;;;;;6283854;28;20032;-83
2021/06/09 10:06:55;;;;;;;13.50;12.40;;;31.10;70.20;;;;;;6283367;28;20405;-83
2021/06/09 10:09:59;;;;;;;13.20;11.80;;;30.90;71.40;;;;;;6283438;28;20028;-83
2021/06/09 10:13:07;;;;;;;13.68;12.38;;;31.00;72.00;;;;;;6300992;28;20024;-83
2021/06/09 10:16:21;;;;;;;13.57;12.18;;;31.30;68.80;;;;;;6282089;28;20027;-84
2021/06/09 10:19:22;;;;;;;12.90;11.70;;;31.40;69.60;;;;;;6264624;28;20048;-85
2021/06/09 10:22:34;;;;;;;13.73;12.40;;;31.20;71.50;;;;;;6281876;28;20030;-84
2021/06/09 10:25:34;;;;;;;14.35;13.05;;;31.40;70.30;;;;;;6284854;28;20266;-84
2021/06/09 10:28:58;;;;;;;14.63;13.23;;;31.60;71.50;;;;;;6266853;28;20043;-83
2021/06/09 10:32:01;;;;;;;14.27;13.07;;;31.40;66.10;;;;;;6266651;28;20543;-84
2021/06/09 10:35:01;;;;;;;14.55;13.05;;;30.80;72.20;;;;;;6300258;28;20028;-84
2021/06/09 10:38:02;;;;;;;14.30;13.00;;;31.50;74.60;;;;;;6282778;28;20390;-84
2021/06/09 10:41:03;;;;;;;15.40;14.07;;;30.00;73.40;;;;;;6300005;28;20149;-82
2021/06/09 10:44:04;;;;;;;14.70;13.40;;;30.10;74.10;;;;;;6266549;28;20056;-82
2021/06/09 10:47:05;;;;;;;;;;;29.70;74.40;;;;;;6283555;28;20105;-80
2021/06/09 10:50:06;;;;;;;14.60;13.30;;;29.50;77.20;;;;;;6300136;28;20341;-83
2021/06/09 10:53:07;;;;;;;16.63;14.90;;;30.00;77.30;;;;;;6267135;28;20035;-80
2021/06/09 10:56:08;;;;;;;14.25;12.95;;;30.20;76.20;;;;;;6298512;28;20052;-82
2021/06/09 10:59:10;;;;;;;15.70;14.23;;;30.60;74.80;;;;;;6299887;28;20453;-83
2021/06/09 11:02:13;;;;;;;14.35;13.02;;;30.80;75.40;;;;;;6300059;28;20016;-85
2021/06/09 11:05:14;;;;;;;14.75;13.43;;;30.90;76.30;;;;;;6282255;28;20078;-87
2021/06/09 11:08:17;;;;;;;15.23;13.90;;;30.80;74.40;;;;;;6266559;28;20066;-84
2021/06/09 11:11:20;;;;;;;14.75;13.45;;;30.70;72.50;;;;;;6282449;28;20020;-84
2021/06/09 11:14:23;;;;;;;13.70;12.52;;;30.80;73.20;;;;;;6282868;28;20039;-84
2021/06/09 11:17:37;;;;;;;13.52;12.27;;;30.40;73.50;;;;;;6282648;28;20127;-86
2021/06/09 11:20:38;;;;;;;14.70;13.40;;;30.20;73.80;;;;;;6283154;28;20035;-83
2021/06/09 11:23:40;;;;;;;14.63;13.35;;;30.40;79.70;;;;;;6299451;28;20024;-84
2021/06/09 11:26:42;;;;;;;15.30;13.88;;;30.10;76.60;;;;;;6283019;28;20040;-84
2021/06/09 11:29:43;;;;;;;14.45;13.20;;;29.40;77.30;;;;;;6267680;28;20039;-85
2021/06/09 11:32:44;;;;;;;14.77;13.33;;;29.00;78.20;;;;;;6287716;28;20036;-87
2021/06/09 11:35:47;;;;;;;17.13;14.10;;;28.70;79.80;;;;;;6287818;28;20028;-85
2021/06/09 11:38:52;;;;;;;15.15;12.68;;;28.10;79.70;;;;;;6304852;28;20115;-86
2021/06/09 11:41:53;;;;;;;13.50;12.20;;;27.70;83.10;;;;;;6287902;28;20032;-85
2021/06/09 11:44:53;;;;;;;15.57;13.95;;;27.20;83.00;;;;;;6287206;28;20497;-84
2021/06/09 11:48:17;;;;;;;15.87;14.47;;;26.50;88.10;;;;;;6270747;28;20032;-84
2021/06/09 11:51:27;;;;;;;16.00;14.32;;;25.70;89.20;;;;;;6287219;28;20038;-87
2021/06/09 11:54:35;;;;;;;16.15;14.75;;;25.20;91.80;;;;;;6287710;28;20034;-84
2021/06/09 11:57:35;;;;;;;17.10;15.57;;;24.80;92.80;;;;;;6303655;28;20064;-84
2021/06/09 12:01:14;;;;;;;17.60;15.93;;;24.50;94.90;;;;;;6270583;28;20039;-84
2021/06/09 12:04:19;;;;;;;18.95;17.15;;;24.30;96.40;;;;;;6286980;28;20123;-84
2021/06/09 12:07:31;;;;;;;17.98;16.23;;;24.00;98.60;;;;;;6303320;28;20027;-84
2021/06/09 12:10:31;;;;;;;14.13;12.55;;;23.60;99.30;;;;;;6268881;28;20016;-84
2021/06/09 12:13:32;;;;;;;12.37;11.27;;;23.10;97.50;;;;;;6283984;28;20117;-84
2021/06/09 12:16:33;;;;;;;13.87;12.33;;;22.50;98.70;;;;;;6267947;28;20089;-85
2021/06/09 12:19:34;;;;;;;11.77;10.70;;;21.90;99.80;;;;;;6284490;28;20409;-87
2021/06/09 12:22:35;;;;;;;12.63;10.38;;;21.60;99.70;;;;;;6269468;28;20039;-85
2021/06/09 12:25:38;;;;;;;14.82;10.45;;;20.40;99.50;;;;;;6285863;28;20127;-82
2021/06/09 12:28:38;;;;;;;15.27;11.77;;;20.80;99.90;;;;;;6286599;28;20080;-82
2021/06/09 12:31:39;;;;;;;13.70;12.20;;;20.40;99.90;;;;;;6302542;28;20020;-83
2021/06/09 12:34:39;;;;;;;19.67;11.73;;;20.10;99.90;;;;;;6286554;28;20107;-85
2021/06/09 12:37:48;;;;;;;19.77;12.52;;;20.10;99.90;;;;;;6285717;28;20036;-82
2021/06/09 12:40:49;;;;;;;11.93;10.35;;;19.70;99.90;;;;;;6285055;28;20154;-81
2021/06/09 12:43:50;;;;;;;11.82;8.38;;;;;;;;;;6285860;28;20043;-85
2021/06/09 12:46:56;;;;;;;14.50;8.60;;;18.80;99.90;;;;;;6286177;28;20024;-84
2021/06/09 12:50:25;;;;;;;11.68;8.27;;;18.40;99.90;;;;;;6286311;28;20020;-86
2021/06/09 12:53:28;;;;;;;9.43;8.48;;;17.70;99.90;;;;;;6287314;28;20031;-85
2021/06/09 12:56:29;;;;;;;8.10;7.30;;;17.80;99.90;;;;;;6303202;28;20139;-88
2021/06/09 12:59:40;;;;;;;10.05;7.30;;;17.40;99.90;;;;;;6286378;28;20394;-86
2021/06/09 13:02:40;;;;;;;9.55;7.72;;;18.10;99.90;;;;;;6286511;28;20465;-88
2021/06/09 13:05:43;;;;;;;12.93;7.45;;;17.40;99.90;;;;;;6269449;28;20115;-90
2021/06/09 13:08:55;;;;;;;9.60;7.97;;;15.50;99.90;;;;;;6268692;28;20173;-89
2021/06/09 13:11:56;;;;;;;7.82;6.72;;;17.50;99.90;;;;;;6271469;28;20024;-88
2021/06/09 13:14:57;;;;;;;7.68;6.95;;;17.40;99.90;;;;;;6285079;28;20093;-84
2021/06/09 13:18:00;;;;;;;7.95;6.72;;;17.30;99.90;;;;;;6285033;28;20035;-88
2021/06/09 13:21:24;;;;;;;10.00;7.35;;;17.00;99.90;;;;;;6286158;28;20033;-86
2021/06/09 13:24:29;;;;;;;11.38;7.28;;;17.00;99.90;;;;;;6286104;28;20115;-86
2021/06/09 13:27:29;;;;;;;10.75;8.35;;;17.00;99.90;;;;;;6319300;28;20478;-87
2021/06/09 13:30:30;;;;;;;9.98;8.20;;;17.20;99.90;;;;;;6285064;28;20060;-87
2021/06/09 13:33:31;;;;;;;8.23;7.32;;;;;;;;;;6284383;28;20594;-84
2021/06/09 13:36:32;;;;;;;7.05;6.35;;;;;;;;;;6301640;28;20076;-85
2021/06/09 13:39:41;;;;;;;11.57;6.50;;;17.30;99.90;;;;;;6283842;28;20080;-87
2021/06/09 13:42:44;;;;;;;8.07;6.63;;;16.90;99.90;;;;;;6268117;28;20490;-87
2021/06/09 13:45:46;;;;;;;9.35;8.00;;;17.10;99.90;;;;;;6283137;28;20066;-81
2021/06/09 13:48:48;;;;;;;10.95;7.72;;;17.00;99.90;;;;;;6299130;28;20028;-85
2021/06/09 13:51:49;;;;;;;7.50;6.80;;;17.00;99.90;;;;;;6285121;28;20039;-87
2021/06/09 13:54:53;;;;;;;9.88;7.32;;;17.00;99.90;;;;;;6285272;28;20285;-85
2021/06/09 13:57:54;;;;;;;8.13;7.32;;;16.90;99.90;;;;;;6301358;28;20040;-86
2021/06/09 14:00:56;;;;;;;8.13;7.35;;;16.90;99.90;;;;;;6267175;28;20474;-84
2021/06/09 14:03:57;;;;;;;8.38;7.57;;;16.90;99.90;;;;;;6282393;28;20035;-85
2021/06/09 14:07:02;;;;;;;9.35;7.80;;;16.70;99.90;;;;;;6283328;28;20111;-86
2021/06/09 14:10:04;;;;;;;10.52;8.07;;;16.80;99.90;;;;;;6300436;28;20381;-84
2021/06/09 14:13:11;;;;;;;9.30;8.38;;;16.80;99.90;;;;;;6283637;28;20034;-83
2021/06/09 14:16:13;;;;;;;7.78;7.07;;;16.70;99.90;;;;;;6284167;28;20028;-86
2021/06/09 14:19:13;;;;;;;11.13;7.30;;;16.90;99.90;;;;;;6299632;28;20063;-84
2021/06/09 14:22:28;;;;;;;11.57;8.57;;;16.80;99.90;;;;;;6266748;28;20119;-84
2021/06/09 14:25:30;;;;;;;9.80;8.57;;;16.80;99.90;;;;;;6282867;28;20032;-83
2021/06/09 14:28:32;;;;;;;12.68;10.40;;;16.70;99.90;;;;;;6283051;28;20035;-82
2021/06/09 14:31:33;;;;;;;12.48;11.18;;;17.00;99.90;;;;;;6299594;28;20024;-85
2021/06/09 14:34:38;;;;;;;13.50;12.10;;;16.80;99.90;;;;;;6266815;28;20067;-84
2021/06/09 14:37:40;;;;;;;12.73;10.93;;;17.20;99.90;;;;;;6300447;28;20051;-87
2021/06/09 14:40:41;;;;;;;15.48;11.57;;;17.30;99.90;;;;;;6284110;28;20028;-84
2021/06/09 14:44:01;;;;;;;15.02;11.80;;;17.10;99.90;;;;;;6300069;28;20369;-87
2021/06/09 14:50:22;;;;;;;11.55;10.35;;;17.20;99.90;;;;;;6300796;28;20032;-84
2021/06/09 14:53:22;;;;;;;9.70;8.80;;;15.70;99.90;;;;;;6283002;28;20035;-84
2021/06/09 14:56:24;;;;;;;9.65;8.65;;;17.60;99.90;;;;;;6282147;28;20071;-83
2021/06/09 14:59:24;;;;;;;10.10;8.97;;;17.70;99.90;;;;;;6299790;28;20075;-84
2021/06/09 15:02:26;;;;;;;9.13;8.13;;;18.00;99.90;;;;;;6282582;28;20274;-84
2021/06/09 15:05:27;;;;;;;9.98;9.05;;;;;;;;;;6299208;28;20024;-84
2021/06/09 15:08:28;;;;;;;10.88;9.88;;;17.90;99.90;;;;;;6299828;28;20470;-83
2021/06/09 15:11:29;;;;;;;10.55;9.27;;;17.80;99.90;;;;;;6265002;28;20068;-84
2021/06/09 15:14:29;;;;;;;9.45;8.55;;;17.70;99.90;;;;;;6282202;28;20024;-84
2021/06/09 15:17:30;;;;;;;8.95;7.90;;;17.60;99.90;;;;;;6282326;28;20067;-84
2021/06/09 15:20:32;;;;;;;8.65;7.22;;;17.60;99.90;;;;;;6282865;28;20114;-84
2021/06/09 15:23:34;;;;;;;7.97;7.17;;;17.60;99.90;;;;;;6265891;28;20468;-84
2021/06/09 15:26:35;;;;;;;7.70;6.93;;;17.90;99.90;;;;;;6282302;28;20039;-79
2021/06/09 15:29:36;;;;;;;7.72;7.05;;;17.60;99.90;;;;;;6299110;28;20032;-81
2021/06/09 15:32:36;;;;;;;8.73;7.82;;;17.60;99.90;;;;;;6281494;28;20024;-83
2021/06/09 15:35:37;;;;;;;9.20;8.10;;;17.60;99.90;;;;;;6296988;28;20382;-82
2021/06/09 15:38:38;;;;;;;10.35;8.80;;;17.70;99.90;;;;;;6298730;28;20084;-84
2021/06/09 15:41:40;;;;;;;10.25;9.02;;;18.30;99.90;;;;;;6281944;28;20424;-85
2021/06/09 15:44:40;;;;;;;8.48;7.63;;;18.40;99.90;;;;;;6282719;28;20020;-84
2021/06/09 15:47:41;;;;;;;7.93;7.22;;;;;;;;;;6282209;28;20039;-84
2021/06/09 15:50:42;;;;;;;12.13;6.80;;;17.70;99.90;;;;;;6281212;28;20366;-80